Time;durP1;ratioP1;P1;durP2;ratioP2;P2;SDS_P1;SDS_P2;PMS_P1;PMS_P2;Temp;Humidity;BMP_temperature;BMP_pressure;BME280_temperature;BME280_humidity;BME280_pressure;Samples;Min_cycle;Max_cycle;Signal;HPM_P1;HPM_P2
2023/08/05 00:02:14;;;;;;;6.82;4.43;;;15.80;99.90;;;17.33;67.98;97564.28;5013880;28;20057;-57
2023/08/05 00:04:41;;;;;;;6.28;4.97;;;15.80;99.90;;;17.39;67.93;97562.63;5013068;28;20069;-57
2023/08/05 00:07:10;;;;;;;8.63;5.13;;;15.80;99.90;;;17.34;68.01;97555.19;5014319;28;20045;-55
2023/08/05 00:09:37;;;;;;;9.00;5.30;;;15.80;99.90;;;17.34;67.93;97557.88;5012468;28;20038;-55
2023/08/05 00:12:05;;;;;;;6.28;4.40;;;15.80;99.90;;;17.35;68.18;97556.00;5014410;28;20052;-56
2023/08/05 00:14:36;;;;;;;6.43;4.20;;;15.80;99.90;;;17.30;68.22;97553.94;5014181;28;20417;-56
2023/08/05 00:17:04;;;;;;;14.23;4.55;;;15.80;99.90;;;17.21;68.20;97553.31;5012727;28;20042;-57
2023/08/05 00:19:32;;;;;;;5.88;4.20;;;15.70;99.90;;;17.24;68.18;97552.09;5014130;28;20052;-57
2023/08/05 00:22:00;;;;;;;7.85;4.97;;;15.70;99.90;;;17.23;68.26;97553.94;5021266;28;20604;-57
2023/08/05 00:24:27;;;;;;;6.82;5.20;;;15.70;99.90;;;17.17;68.34;97557.44;5013939;28;20049;-57
2023/08/05 00:26:55;;;;;;;7.20;4.82;;;15.70;99.90;;;17.26;68.10;97560.78;5013995;28;20155;-56
2023/08/05 00:29:22;;;;;;;7.88;4.50;;;15.80;99.90;;;17.31;68.18;97556.44;5012283;28;20052;-56
2023/08/05 00:31:50;;;;;;;8.77;4.82;;;15.80;99.90;;;17.36;68.08;97555.81;5013691;28;20057;-55
2023/08/05 00:34:18;;;;;;;9.95;4.47;;;15.80;99.90;;;17.38;67.93;97569.88;5012989;28;20042;-57
2023/08/05 00:36:45;;;;;;;10.18;4.72;;;15.80;99.90;;;17.47;67.98;97567.81;5011154;28;20042;-57
2023/08/05 00:39:14;;;;;;;9.27;4.75;;;15.90;99.90;;;17.52;67.60;97562.63;5012995;28;20042;-53
2023/08/05 00:41:41;;;;;;;8.82;5.07;;;15.90;99.90;;;17.58;67.49;97564.50;5013543;28;20046;-57
2023/08/05 00:44:09;;;;;;;8.20;4.93;;;16.00;99.90;;;17.60;67.47;97566.97;4980149;28;20050;-54
2023/08/05 00:46:37;;;;;;;7.15;5.20;;;16.00;99.90;;;17.65;67.43;97565.31;5004708;28;20068;-57
2023/08/05 00:49:05;;;;;;;8.40;5.30;;;16.00;99.90;;;17.61;67.09;97557.88;5011825;28;20505;-57
2023/08/05 00:51:33;;;;;;;7.45;5.45;;;16.00;99.90;;;17.53;67.08;97561.63;4996332;28;20437;-57
2023/08/05 00:54:03;;;;;;;8.40;5.30;;;15.90;99.90;;;17.51;67.24;97547.53;5013384;28;20045;-54
2023/08/05 00:56:31;;;;;;;8.48;4.88;;;15.80;99.90;;;17.45;67.15;97554.56;5013407;28;20076;-57
2023/08/05 00:58:59;;;;;;;5.68;4.60;;;15.80;99.90;;;17.44;67.31;97539.44;5007919;28;20048;-57
2023/08/05 01:01:26;;;;;;;6.88;4.95;;;15.80;99.90;;;17.35;67.26;97538.03;4995764;28;20053;-57
2023/08/05 01:03:54;;;;;;;6.55;5.07;;;15.70;99.90;;;17.31;67.43;97531.38;5012327;28;20049;-57
2023/08/05 01:06:24;;;;;;;6.47;4.55;;;15.70;99.90;;;17.34;67.35;97528.28;5012972;28;20065;-57
2023/08/05 01:08:54;;;;;;;7.68;4.60;;;15.70;99.90;;;17.24;67.53;97519.81;5012544;28;20042;-55
2023/08/05 01:11:22;;;;;;;7.28;5.78;;;15.60;99.90;;;17.27;67.41;97524.75;5012146;28;20045;-57
2023/08/05 01:13:50;;;;;;;6.05;4.55;;;15.70;99.90;;;17.16;67.40;97523.53;5028332;28;20398;-57
2023/08/05 01:16:18;;;;;;;10.45;5.72;;;15.60;99.90;;;17.20;67.33;97530.16;5011725;28;20519;-53
2023/08/05 01:18:46;;;;;;;10.23;5.38;;;15.70;99.90;;;17.23;67.28;97532.41;5011736;28;20072;-54
2023/08/05 01:21:26;;;;;;;8.15;5.10;;;15.70;99.90;;;17.18;67.22;97524.16;4995992;28;20212;-55
2023/08/05 01:24:18;;;;;;;6.43;4.85;;;15.60;99.90;;;17.10;67.28;97522.47;5011994;28;20042;-56
2023/08/05 01:26:48;;;;;;;8.38;5.57;;;15.50;99.90;;;17.05;67.12;97522.25;5005000;28;20383;-57
2023/08/05 01:29:16;;;;;;;9.65;5.60;;;15.50;99.90;;;17.05;67.38;97524.94;4993908;28;20784;-55
2023/08/05 01:31:45;;;;;;;8.82;5.22;;;15.40;99.90;;;17.05;67.35;97524.13;4995607;28;20049;-56
2023/08/05 01:34:13;;;;;;;7.20;5.00;;;15.50;99.90;;;17.06;67.38;97533.84;4995466;28;20045;-56
2023/08/05 01:36:41;;;;;;;7.68;5.95;;;15.40;99.90;;;17.05;67.27;97532.19;5011676;28;20152;-57
2023/08/05 01:39:08;;;;;;;7.20;4.90;;;15.40;99.90;;;16.99;67.24;97539.22;5011089;28;20050;-58
2023/08/05 01:41:36;;;;;;;9.55;5.80;;;15.40;99.90;;;17.01;67.22;97537.16;5011067;28;20053;-57
2023/08/05 01:44:04;;;;;;;6.75;5.32;;;15.40;99.90;;;16.93;67.37;97540.03;5012649;28;20490;-56
2023/08/05 01:46:32;;;;;;;7.82;5.10;;;15.30;99.90;;;16.93;67.57;97537.34;5012289;28;20065;-55
2023/08/05 01:48:59;;;;;;;6.70;5.30;;;15.30;99.90;;;16.95;67.25;97543.34;5010607;28;20049;-53
2023/08/05 01:51:27;;;;;;;8.98;5.75;;;15.30;99.90;;;16.95;67.12;97545.22;5012403;28;20042;-55
2023/08/05 01:53:54;;;;;;;10.85;5.63;;;15.30;99.90;;;16.89;67.36;97542.31;5011533;28;20443;-56
2023/08/05 01:56:22;;;;;;;8.18;5.40;;;15.30;99.90;;;16.84;67.54;97539.41;5010793;28;20524;-55
2023/08/05 01:58:50;;;;;;;7.75;5.07;;;15.20;99.90;;;16.76;67.77;97542.25;5011021;28;20050;-57
2023/08/05 02:01:18;;;;;;;11.18;5.50;;;15.20;99.90;;;16.67;68.05;97535.38;5009981;28;20058;-57
2023/08/05 02:03:45;;;;;;;7.50;5.65;;;15.20;99.90;;;16.62;68.17;97532.50;5011166;28;20417;-57
2023/08/05 02:06:14;;;;;;;7.88;5.18;;;15.20;99.90;;;16.68;67.98;97534.38;5012455;28;20045;-53
2023/08/05 02:08:41;;;;;;;7.03;5.70;;;15.20;99.90;;;16.69;68.03;97533.31;5003961;28;20045;-55
2023/08/05 02:11:09;;;;;;;9.05;5.03;;;15.20;99.90;;;16.67;68.13;97530.00;5012050;28;20038;-56
2023/08/05 02:13:37;;;;;;;7.72;5.90;;;15.20;99.90;;;16.63;68.34;97526.91;5011699;28;20048;-56
2023/08/05 02:16:09;;;;;;;8.90;5.32;;;15.20;99.90;;;16.63;68.46;97516.16;4999668;28;20426;-57
2023/08/05 02:18:37;;;;;;;8.27;6.45;;;15.20;99.90;;;16.68;68.13;97510.19;5010333;28;20049;-57
2023/08/05 02:21:05;;;;;;;8.23;5.35;;;15.20;99.90;;;16.68;67.99;97502.94;5012070;28;20049;-54
2023/08/05 02:23:33;;;;;;;7.47;5.07;;;15.30;99.90;;;16.59;68.56;97506.84;5011874;28;20060;-55
2023/08/05 02:26:02;;;;;;;9.45;5.05;;;15.20;99.90;;;16.66;68.12;97504.19;5010296;28;20053;-57
2023/08/05 02:28:30;;;;;;;7.78;5.20;;;15.20;99.90;;;16.64;68.37;97506.25;5011337;28;20065;-56
2023/08/05 02:30:58;;;;;;;8.18;5.70;;;15.20;99.90;;;16.66;68.42;97502.31;5011592;28;20045;-56
2023/08/05 02:33:26;;;;;;;9.68;5.22;;;15.20;99.90;;;16.72;68.29;97503.38;5010473;28;20050;-56
2023/08/05 02:35:59;;;;;;;6.95;5.47;;;15.20;99.90;;;16.62;68.67;97495.69;5010735;28;20049;-54
2023/08/05 02:38:26;;;;;;;7.57;5.43;;;15.20;99.90;;;16.68;68.29;97499.44;5010769;28;20425;-56
2023/08/05 02:40:55;;;;;;;7.97;5.38;;;15.20;99.90;;;16.71;67.88;97493.63;5011732;28;20042;-57
2023/08/05 02:43:23;;;;;;;8.48;5.13;;;15.30;99.90;;;16.67;68.40;97489.69;5010576;28;20088;-57
2023/08/05 02:45:54;;;;;;;7.57;5.80;;;15.20;99.90;;;16.58;68.60;97483.69;5010534;28;20049;-57
2023/08/05 02:48:24;;;;;;;7.43;5.63;;;15.20;99.90;;;16.55;68.46;97473.34;5009904;28;20057;-56
2023/08/05 02:50:54;;;;;;;7.13;5.00;;;15.20;99.90;;;16.57;68.69;97470.47;5018470;28;20042;-56
2023/08/05 02:53:22;;;;;;;7.85;6.13;;;15.20;99.90;;;16.44;69.14;97464.03;5010771;28;20524;-56
2023/08/05 02:55:49;;;;;;;9.02;5.78;;;15.10;99.90;;;16.50;69.14;97467.78;5010216;28;20046;-55
2023/08/05 02:58:19;;;;;;;7.43;5.43;;;15.10;99.90;;;16.53;68.79;97464.66;5010267;28;20056;-55
2023/08/05 03:00:46;;;;;;;8.18;5.30;;;15.10;99.90;;;16.47;68.91;97479.72;5015054;28;20076;-56
2023/08/05 03:03:16;;;;;;;7.53;5.50;;;15.00;99.90;;;16.47;69.06;97500.41;5014583;28;20057;-53
2023/08/05 03:05:44;;;;;;;7.47;5.15;;;15.00;99.90;;;16.44;68.93;97504.34;5007711;28;20050;-54
2023/08/05 03:08:11;;;;;;;7.53;5.28;;;15.00;99.90;;;16.41;69.10;97515.47;5014263;28;20387;-57
2023/08/05 03:10:39;;;;;;;9.27;5.85;;;15.00;99.90;;;16.42;69.00;97497.50;5013768;28;20053;-56
2023/08/05 03:13:07;;;;;;;7.18;5.55;;;15.00;99.90;;;16.31;69.50;97486.31;5030890;28;20049;-56
2023/08/05 03:15:35;;;;;;;8.30;5.40;;;15.00;99.90;;;16.34;69.27;97495.81;5030347;28;20049;-55
2023/08/05 03:18:10;;;;;;;9.38;5.63;;;15.00;99.90;;;16.28;69.49;97504.69;5014063;28;20042;-54
2023/08/05 03:20:39;;;;;;;9.93;5.68;;;15.00;99.90;;;16.30;69.52;97514.22;5013897;28;20084;-55
2023/08/05 03:23:13;;;;;;;8.20;5.72;;;15.00;99.90;;;16.30;69.47;97522.28;5030845;28;20058;-55
2023/08/05 03:25:45;;;;;;;8.00;5.05;;;15.00;99.90;;;16.38;69.26;97532.00;5006261;28;20053;-57
2023/08/05 03:28:13;;;;;;;8.07;5.18;;;15.00;99.90;;;16.46;69.07;97534.53;5013806;28;20421;-56
2023/08/05 03:30:47;;;;;;;6.55;5.25;;;15.00;99.90;;;16.50;69.02;97543.84;5013521;28;20042;-56
2023/08/05 03:33:20;;;;;;;9.05;5.47;;;15.10;99.90;;;16.34;69.27;97539.66;5002631;28;20047;-57
2023/08/05 03:35:48;;;;;;;7.32;5.53;;;15.00;99.90;;;16.36;69.12;97538.59;5013665;28;20046;-56
2023/08/05 03:38:19;;;;;;;6.63;5.15;;;15.00;99.90;;;16.27;69.25;97528.03;5030094;28;20046;-57
2023/08/05 03:40:47;;;;;;;7.90;5.80;;;14.90;99.90;;;16.37;69.08;97530.34;5013620;28;20057;-54
2023/08/05 03:43:15;;;;;;;9.13;6.53;;;15.00;99.90;;;16.37;69.10;97534.91;5013748;28;20049;-57
2023/08/05 03:45:51;;;;;;;7.65;5.65;;;15.00;99.90;;;16.44;68.96;97541.09;4997605;28;20061;-53
2023/08/05 03:48:20;;;;;;;6.75;4.30;;;15.00;99.90;;;16.44;68.73;97535.72;5013671;28;20061;-53
2023/08/05 03:50:47;;;;;;;7.28;5.70;;;15.00;99.90;;;16.51;68.64;97547.34;5014516;28;20438;-56
2023/08/05 03:53:15;;;;;;;7.55;5.43;;;15.00;99.90;;;16.56;68.36;97552.13;5014709;28;20042;-57
2023/08/05 03:55:42;;;;;;;8.02;5.13;;;15.00;99.90;;;16.57;68.44;97559.16;5013310;28;20050;-57
2023/08/05 03:58:11;;;;;;;11.52;6.10;;;15.10;99.90;;;16.51;68.50;97553.53;5013310;28;20046;-58
2023/08/05 04:00:43;;;;;;;8.90;5.97;;;15.00;99.90;;;16.53;68.47;97559.53;5010634;28;20042;-57
2023/08/05 04:03:11;;;;;;;9.82;5.82;;;15.00;99.90;;;16.41;68.63;97573.75;5013218;28;20050;-57
2023/08/05 04:05:40;;;;;;;6.60;5.05;;;15.00;99.90;;;16.50;68.52;97569.88;5014220;28;20048;-53
2023/08/05 04:08:07;;;;;;;7.22;6.07;;;15.00;99.90;;;16.57;68.31;97572.59;5012805;28;20045;-57
2023/08/05 04:10:38;;;;;;;7.82;5.18;;;15.10;99.90;;;16.60;68.47;97573.00;5012787;28;20042;-55
2023/08/05 04:13:06;;;;;;;7.25;5.05;;;15.10;99.90;;;16.66;68.13;97574.88;5013227;28;20057;-57
2023/08/05 04:15:35;;;;;;;7.93;6.13;;;15.20;99.90;;;16.60;68.16;97573.00;5012643;28;20064;-56
2023/08/05 04:18:04;;;;;;;10.52;6.07;;;15.20;99.90;;;16.55;68.46;97572.78;5013012;28;20050;-56
2023/08/05 04:20:35;;;;;;;8.80;5.63;;;15.10;99.90;;;16.56;68.29;97571.75;5012796;28;20053;-55
2023/08/05 04:23:05;;;;;;;10.45;6.15;;;15.10;99.90;;;16.57;68.32;97568.03;5029675;28;20048;-56
2023/08/05 04:25:34;;;;;;;7.30;5.32;;;15.00;99.90;;;16.52;68.17;97565.94;5021279;28;20504;-52
2023/08/05 04:28:01;;;;;;;10.23;5.82;;;15.00;99.90;;;16.47;68.51;97568.41;5013774;28;20406;-54
2023/08/05 04:30:29;;;;;;;6.93;5.82;;;15.00;99.90;;;16.50;68.49;97577.94;5012328;28;20053;-52
2023/08/05 04:32:57;;;;;;;6.65;5.50;;;15.00;99.90;;;16.49;68.32;97569.03;5013922;28;20038;-54
2023/08/05 04:35:24;;;;;;;8.90;5.55;;;15.00;99.90;;;16.47;68.31;97559.53;5013926;28;20048;-56
2023/08/05 04:37:52;;;;;;;8.75;5.32;;;15.00;99.90;;;16.58;68.28;97561.63;5013875;28;20049;-57
2023/08/05 04:40:19;;;;;;;7.90;5.80;;;15.10;99.90;;;16.67;68.38;97559.59;5013743;28;20412;-57
2023/08/05 04:42:47;;;;;;;8.85;5.72;;;15.20;99.90;;;16.69;68.23;97569.13;5013523;28;20089;-56
2023/08/05 04:45:15;;;;;;;9.00;5.82;;;15.20;99.90;;;16.75;67.99;97564.81;5013987;28;20065;-55
2023/08/05 04:47:42;;;;;;;8.38;6.07;;;15.20;99.90;;;16.79;67.88;97565.19;5013378;28;20482;-57
2023/08/05 04:50:10;;;;;;;6.00;5.13;;;15.20;99.90;;;16.81;67.79;97565.81;5013513;28;20421;-58
2023/08/05 04:52:39;;;;;;;8.77;5.63;;;15.20;99.90;;;16.79;67.62;97578.63;5013291;28;20049;-57
2023/08/05 04:55:11;;;;;;;8.80;5.35;;;15.20;99.90;;;16.80;67.80;97578.44;5013380;28;20038;-56
2023/08/05 04:57:39;;;;;;;8.00;5.28;;;15.20;99.90;;;16.79;67.60;97575.94;5012748;28;20053;-57
2023/08/05 05:00:07;;;;;;;7.50;5.38;;;15.20;99.90;;;16.84;67.57;97581.59;5013280;28;20042;-54
2023/08/05 05:02:36;;;;;;;8.93;5.95;;;15.20;99.90;;;16.83;67.50;97583.47;5012676;28;20080;-55
2023/08/05 05:05:04;;;;;;;10.45;5.63;;;15.20;99.90;;;16.85;67.45;97586.78;5013401;28;20046;-57
2023/08/05 05:07:32;;;;;;;9.40;6.20;;;15.30;99.90;;;16.86;67.59;97591.09;5012927;28;20050;-54
2023/08/05 05:10:01;;;;;;;7.78;5.20;;;15.30;99.90;;;16.91;67.48;97582.44;5012683;28;20038;-56
2023/08/05 05:12:28;;;;;;;9.68;5.32;;;15.30;99.90;;;16.92;67.29;97584.94;5012006;28;20046;-56
2023/08/05 05:14:56;;;;;;;13.02;6.22;;;15.30;99.90;;;16.92;67.44;97594.84;5012153;28;20046;-55
2023/08/05 05:17:23;;;;;;;10.60;6.30;;;15.30;99.90;;;16.93;67.48;97601.88;5013116;28;20041;-57
2023/08/05 05:19:51;;;;;;;9.65;5.47;;;15.30;99.90;;;16.92;67.47;97593.00;5004823;28;20425;-55
2023/08/05 05:22:19;;;;;;;10.45;5.95;;;15.40;99.90;;;16.95;67.53;97597.13;5012469;28;20069;-57
2023/08/05 05:24:50;;;;;;;8.95;5.05;;;15.40;99.90;;;16.95;67.36;97589.06;5012805;28;20042;-58
2023/08/05 05:27:18;;;;;;;7.43;5.78;;;15.40;99.90;;;16.95;67.29;97582.88;5012786;28;20064;-57
2023/08/05 05:29:46;;;;;;;10.57;6.10;;;15.30;99.90;;;16.95;67.21;97585.56;5011281;28;20046;-57
2023/08/05 05:32:13;;;;;;;6.70;4.63;;;15.40;99.90;;;16.84;67.45;97587.78;5012399;28;20502;-57
2023/08/05 05:34:41;;;;;;;7.47;5.60;;;15.30;99.90;;;16.82;67.73;97584.47;5011490;28;20449;-58
2023/08/05 05:37:09;;;;;;;8.75;4.82;;;15.20;99.90;;;16.78;67.67;97577.00;5012715;28;20041;-58
2023/08/05 05:39:36;;;;;;;8.50;4.72;;;15.30;99.90;;;16.85;67.54;97572.50;5012319;28;20053;-58
2023/08/05 05:42:05;;;;;;;7.43;5.55;;;15.30;99.90;;;16.90;67.63;97576.25;5012570;28;20080;-58
2023/08/05 05:44:32;;;;;;;6.32;4.53;;;15.30;99.90;;;16.91;67.16;97580.56;5012684;28;20050;-57
2023/08/05 05:47:00;;;;;;;8.23;4.72;;;15.40;99.90;;;16.95;67.26;97574.81;5012702;28;20057;-58
2023/08/05 05:49:28;;;;;;;7.07;5.10;;;15.40;99.90;;;17.02;67.06;97564.88;5012067;28;20054;-56
2023/08/05 05:51:55;;;;;;;8.38;5.00;;;15.50;99.90;;;17.01;66.93;97572.13;5012255;28;20261;-55
2023/08/05 05:54:23;;;;;;;7.20;4.25;;;15.50;99.90;;;17.00;66.88;97565.09;5012036;28;20497;-58
2023/08/05 05:56:51;;;;;;;8.95;5.55;;;15.50;99.90;;;17.02;66.95;97564.88;5012375;28;20046;-58
2023/08/05 05:59:19;;;;;;;6.45;5.40;;;15.50;99.90;;;17.07;66.88;97570.47;5011876;28;20045;-58
2023/08/05 06:01:46;;;;;;;7.15;4.85;;;15.60;99.90;;;16.97;66.71;97561.97;5011315;28;20038;-60
2023/08/05 06:04:14;;;;;;;8.13;5.07;;;15.50;99.90;;;16.90;67.07;97568.19;5012263;28;20054;-59
2023/08/05 06:06:42;;;;;;;7.10;5.57;;;15.50;99.90;;;16.90;67.18;97557.44;5012120;28;20050;-59
2023/08/05 06:09:09;;;;;;;8.60;5.40;;;15.50;99.90;;;16.98;67.32;97553.69;5011621;28;20050;-58
2023/08/05 06:11:37;;;;;;;5.25;4.32;;;15.50;99.90;;;16.96;67.31;97553.06;5010335;28;20500;-58
2023/08/05 06:14:05;;;;;;;6.47;4.25;;;15.50;99.90;;;17.02;67.23;97564.88;5011069;28;20497;-59
2023/08/05 06:16:33;;;;;;;7.63;4.63;;;15.60;99.90;;;16.97;67.22;97556.59;5011985;28;20041;-60
2023/08/05 06:19:13;;;;;;;6.72;4.55;;;15.60;99.90;;;16.92;67.38;97571.50;5011718;28;20050;-60
2023/08/05 06:21:40;;;;;;;6.50;4.50;;;15.50;99.90;;;16.95;67.13;97564.06;5012065;28;20053;-59
2023/08/05 06:24:08;;;;;;;7.97;5.68;;;15.60;99.90;;;16.91;67.38;97569.81;5011692;28;20052;-59
2023/08/05 06:26:35;;;;;;;7.05;5.60;;;15.50;99.90;;;16.96;67.39;97563.81;5011886;28;20045;-58
2023/08/05 06:29:03;;;;;;;7.78;5.13;;;15.60;99.90;;;17.00;67.40;97564.25;5010657;28;20528;-61
2023/08/05 06:31:30;;;;;;;7.18;5.05;;;15.60;99.90;;;17.06;67.33;97548.13;4994432;28;20057;-61
2023/08/05 06:33:58;;;;;;;6.78;5.22;;;15.70;99.90;;;17.09;67.06;97549.59;5011778;28;20042;-60
2023/08/05 06:36:26;;;;;;;9.43;5.18;;;15.80;99.90;;;17.07;67.30;97551.66;5011882;28;20413;-60
2023/08/05 06:38:53;;;;;;;8.35;4.82;;;15.70;99.90;;;17.00;67.37;97550.81;5011387;28;20072;-61
2023/08/05 06:41:21;;;;;;;12.52;5.00;;;15.70;99.90;;;17.04;67.35;97541.28;5011466;28;20045;-59
2023/08/05 06:43:49;;;;;;;9.65;4.90;;;15.70;99.90;;;16.86;67.47;97540.03;5011862;28;20045;-60
2023/08/05 06:46:17;;;;;;;12.00;6.05;;;15.60;99.90;;;16.97;67.26;97538.59;5011592;28;20060;-59
2023/08/05 06:48:45;;;;;;;7.07;5.07;;;15.60;99.90;;;16.99;67.40;97524.97;5010680;28;20058;-59
2023/08/05 06:51:13;;;;;;;7.43;5.18;;;15.70;99.90;;;17.06;67.27;97536.53;5011601;28;20049;-61
2023/08/05 06:53:44;;;;;;;6.90;4.72;;;15.70;99.90;;;17.10;66.91;97535.13;5011501;28;20038;-61
2023/08/05 06:56:11;;;;;;;6.50;4.28;;;15.70;99.90;;;17.05;66.97;97532.19;5011682;28;20065;-61
2023/08/05 06:58:39;;;;;;;6.70;4.43;;;15.70;99.90;;;17.05;67.05;97535.72;5011063;28;20485;-60
2023/08/05 07:01:06;;;;;;;6.78;4.93;;;15.70;99.90;;;16.95;67.12;97534.47;5008298;28;20167;-59
2023/08/05 07:03:34;;;;;;;6.03;4.50;;;15.70;99.90;;;16.90;67.49;97524.31;5011185;28;20045;-59
2023/08/05 07:06:02;;;;;;;7.75;5.43;;;15.70;99.90;;;16.99;67.52;97530.34;5011804;28;20053;-59
2023/08/05 07:08:30;;;;;;;6.72;5.28;;;15.80;99.90;;;16.99;67.40;97530.34;5010497;28;20053;-59
2023/08/05 07:10:58;;;;;;;7.82;5.43;;;15.80;99.90;;;17.15;67.30;97532.63;5011351;28;20417;-58
2023/08/05 07:13:26;;;;;;;6.82;4.60;;;15.90;99.90;;;17.13;67.32;97530.13;5011300;28;20045;-59
2023/08/05 07:16:01;;;;;;;13.20;5.43;;;16.00;99.90;;;17.07;67.11;97532.81;5010390;28;20044;-59
2023/08/05 07:18:29;;;;;;;6.95;4.80;;;15.90;99.90;;;17.00;67.53;97527.44;5010873;28;20506;-59
2023/08/05 07:20:57;;;;;;;7.07;4.28;;;15.90;99.90;;;17.03;67.54;97534.28;5003617;28;20037;-56
2023/08/05 07:23:25;;;;;;;6.65;5.40;;;16.00;99.90;;;17.26;67.49;97537.38;5011312;28;20425;-58
2023/08/05 07:25:53;;;;;;;7.55;4.43;;;16.10;99.90;;;17.27;67.09;97541.75;5010088;28;20049;-58
2023/08/05 07:28:20;;;;;;;8.10;4.97;;;16.20;99.90;;;17.41;67.18;97553.34;5010983;28;20046;-56
2023/08/05 07:30:48;;;;;;;8.90;4.57;;;16.30;99.90;;;17.46;66.77;97555.41;5017477;28;20049;-58
2023/08/05 07:33:17;;;;;;;11.80;5.68;;;16.40;99.90;;;17.59;66.75;97555.38;5010987;28;20038;-55
2023/08/05 07:35:44;;;;;;;6.22;4.35;;;16.50;99.90;;;17.59;66.45;97551.88;5011152;28;20042;-55
2023/08/05 07:38:12;;;;;;;6.60;4.80;;;16.50;99.90;;;17.61;66.17;97549.81;5010929;28;20046;-53
2023/08/05 07:40:40;;;;;;;6.63;4.85;;;16.50;99.90;;;17.62;65.73;97546.91;5010690;28;20042;-55
2023/08/05 07:43:09;;;;;;;6.10;4.63;;;16.50;99.90;;;17.59;65.35;97536.56;5011158;28;20053;-53
2023/08/05 07:45:37;;;;;;;5.82;4.38;;;16.40;99.90;;;17.64;65.29;97538.59;5012363;28;20068;-57
2023/08/05 07:48:08;;;;;;;7.72;3.83;;;16.40;99.90;;;17.64;64.80;97534.06;5014393;28;20046;-55
2023/08/05 07:50:35;;;;;;;7.45;5.25;;;16.40;99.90;;;17.62;64.86;97536.16;5014066;28;20054;-55
2023/08/05 07:53:05;;;;;;;7.13;4.50;;;16.40;99.90;;;17.66;65.01;97539.22;5014529;28;20057;-55
2023/08/05 07:55:34;;;;;;;9.40;4.82;;;16.40;99.90;;;17.79;65.11;97533.00;5014543;28;20505;-55
2023/08/05 07:58:04;;;;;;;5.93;4.45;;;16.50;99.90;;;17.85;65.20;97535.69;5012746;28;20413;-56
2023/08/05 08:00:33;;;;;;;7.90;5.22;;;16.70;99.90;;;17.83;65.13;97535.06;5012799;28;20073;-51
2023/08/05 08:03:00;;;;;;;6.30;4.72;;;16.70;99.90;;;17.91;65.01;97525.97;5013578;28;20520;-57
2023/08/05 08:05:28;;;;;;;5.22;4.60;;;16.70;99.90;;;18.02;64.78;97525.31;5014502;28;20056;-57
2023/08/05 08:07:56;;;;;;;5.03;4.05;;;16.80;99.90;;;18.03;64.35;97518.91;5014020;28;20053;-58
2023/08/05 08:10:25;;;;;;;4.70;3.58;;;16.80;99.90;;;18.02;64.39;97527.19;5002809;28;20046;-52
2023/08/05 08:12:53;;;;;;;5.93;4.40;;;16.90;99.90;;;18.10;64.49;97522.38;5000708;28;20058;-51
2023/08/05 08:15:21;;;;;;;6.00;4.20;;;16.90;99.90;;;18.24;64.42;97516.94;5004226;28;20548;-57
2023/08/05 08:17:48;;;;;;;6.85;4.60;;;17.00;99.90;;;18.30;64.04;97516.13;5001945;28;20038;-56
2023/08/05 08:20:16;;;;;;;7.85;4.05;;;17.10;99.90;;;18.28;63.29;97510.09;5003696;28;20052;-54
2023/08/05 08:22:44;;;;;;;5.70;4.18;;;17.10;99.90;;;18.34;63.58;97509.25;4999956;28;20611;-53
2023/08/05 08:25:11;;;;;;;8.88;4.63;;;17.10;99.90;;;18.44;63.48;97511.50;5001032;28;20045;-55
2023/08/05 08:27:39;;;;;;;6.03;4.10;;;17.20;99.90;;;18.29;63.09;97515.28;5003280;28;20413;-55
2023/08/05 08:30:07;;;;;;;6.78;4.28;;;17.10;99.90;;;18.37;63.47;97508.00;5013799;28;20497;-54
2023/08/05 08:32:35;;;;;;;6.22;4.10;;;17.10;99.90;;;18.42;63.33;97503.63;5014095;28;20050;-54
2023/08/05 08:35:02;;;;;;;5.15;4.03;;;17.20;99.90;;;18.45;63.52;97496.97;5013708;28;20046;-57
2023/08/05 08:37:30;;;;;;;7.35;4.10;;;17.30;99.90;;;18.56;63.35;97496.28;5013559;28;20042;-56
2023/08/05 08:39:58;;;;;;;4.10;3.45;;;17.40;99.90;;;18.68;63.31;97499.13;5013467;28;20441;-52
2023/08/05 08:42:26;;;;;;;5.22;3.83;;;17.50;99.90;;;18.74;62.96;97490.16;5013720;28;20441;-56
2023/08/05 08:44:54;;;;;;;6.13;4.47;;;17.60;99.90;;;18.87;63.04;97492.81;5013522;28;20057;-55
2023/08/05 08:47:23;;;;;;;6.70;4.18;;;17.80;99.90;;;18.99;62.98;97490.22;5013922;28;20071;-54
2023/08/05 08:49:53;;;;;;;5.72;3.40;;;17.90;99.90;;;19.03;62.77;97490.63;4995582;28;20429;-52
2023/08/05 08:52:21;;;;;;;7.30;3.92;;;18.00;99.90;;;19.08;62.26;97488.91;5013551;28;20049;-54
2023/08/05 08:54:51;;;;;;;5.32;4.10;;;18.00;99.90;;;19.05;61.02;97493.91;5012772;28;20054;-57
2023/08/05 08:57:18;;;;;;;4.47;3.67;;;17.90;95.40;;;19.01;60.96;97490.81;4995638;28;20046;-56
2023/08/05 08:59:47;;;;;;;5.72;3.55;;;17.90;98.70;;;19.07;61.13;97489.13;5013718;28;20466;-55
2023/08/05 09:02:24;;;;;;;6.13;3.80;;;17.90;99.90;;;18.99;60.76;97484.81;5013303;28;20042;-54
2023/08/05 09:04:53;;;;;;;5.60;3.35;;;17.90;97.60;;;19.13;61.03;97488.25;5012640;28;20050;-58
2023/08/05 09:07:27;;;;;;;5.35;3.30;;;18.00;99.60;;;19.21;60.58;97489.84;5013313;28;20045;-56
2023/08/05 09:09:57;;;;;;;4.53;3.75;;;18.10;97.50;;;19.28;60.88;97486.03;5011835;28;20045;-56
2023/08/05 09:12:29;;;;;;;3.83;3.33;;;18.20;98.10;;;19.36;60.78;97484.94;5012932;28;20421;-56
2023/08/05 09:14:57;;;;;;;5.78;3.47;;;18.30;98.10;;;19.41;59.80;97481.59;5011694;28;20042;-58
2023/08/05 09:17:26;;;;;;;3.97;3.20;;;18.40;93.30;;;19.32;59.83;97477.53;5013309;28;20077;-57
2023/08/05 09:19:54;;;;;;;4.75;3.70;;;18.30;93.60;;;19.30;59.19;97483.13;5012484;28;20045;-55
2023/08/05 09:22:21;;;;;;;5.35;3.47;;;18.20;92.70;;;19.47;59.78;97491.50;5011790;28;20049;-54
2023/08/05 09:24:59;;;;;;;4.88;3.30;;;18.30;96.60;;;19.48;59.20;97487.75;5013062;28;20402;-55
2023/08/05 09:27:26;;;;;;;4.55;3.15;;;18.50;93.80;;;19.57;59.23;97486.41;5011767;28;20406;-55
2023/08/05 09:30:12;;;;;;;9.02;3.60;;;18.50;95.70;;;19.49;58.67;97489.41;5012085;28;20046;-55
2023/08/05 09:32:42;;;;;;;4.57;3.30;;;18.50;91.00;;;19.57;58.73;97482.91;5012790;28;20429;-52
2023/08/05 09:35:10;;;;;;;4.57;3.40;;;18.60;92.40;;;19.71;58.52;97478.19;5011394;28;20422;-56
2023/08/05 09:37:41;;;;;;;4.97;3.50;;;18.70;92.70;;;19.83;58.68;97481.81;5011475;28;20054;-56
2023/08/05 09:40:19;;;;;;;4.07;3.08;;;18.80;92.00;;;19.90;56.93;97479.06;5012477;28;20049;-54
2023/08/05 09:42:50;;;;;;;3.78;3.08;;;18.80;85.70;;;19.96;56.31;97473.56;5011458;28;20053;-52
2023/08/05 09:45:20;;;;;;;3.75;3.10;;;18.90;84.50;;;19.90;55.28;97470.97;5012424;28;20053;-54
2023/08/05 09:47:50;;;;;;;4.43;3.95;;;18.90;83.40;;;19.82;55.45;97478.28;5008722;28;20073;-58
2023/08/05 09:50:20;;;;;;;5.25;2.97;;;19.00;84.30;;;19.92;54.96;97468.84;4999139;28;20057;-58
2023/08/05 09:52:52;;;;;;;4.10;2.78;;;19.00;82.70;;;19.99;55.67;97461.50;5001928;28;20053;-56
2023/08/05 09:55:19;;;;;;;5.40;2.90;;;19.00;83.30;;;19.93;55.44;97456.97;5004016;28;20053;-56
2023/08/05 09:57:47;;;;;;;6.30;2.88;;;19.00;83.00;;;20.01;55.69;97460.22;5003897;28;20038;-56
2023/08/05 10:00:15;;;;;;;5.72;3.53;;;19.10;85.60;;;20.01;55.64;97452.13;5003343;28;20053;-58
2023/08/05 10:02:44;;;;;;;3.85;3.30;;;19.00;84.30;;;20.04;54.24;97450.81;4999948;28;20413;-58
2023/08/05 10:05:13;;;;;;;3.40;2.42;;;19.10;81.60;;;20.10;54.66;97452.63;5003596;28;20054;-58
2023/08/05 10:07:42;;;;;;;3.55;2.80;;;19.00;83.60;;;20.03;53.60;97454.59;5003991;28;20046;-54
2023/08/05 10:10:14;;;;;;;4.38;2.83;;;19.00;79.60;;;20.02;54.19;97445.63;5002913;28;20053;-56
2023/08/05 10:12:51;;;;;;;4.70;2.70;;;19.00;80.30;;;20.01;54.39;97440.50;5003337;28;20057;-54
2023/08/05 10:15:29;;;;;;;3.50;2.90;;;19.00;83.00;;;20.14;54.91;97450.28;4999443;28;20042;-59
2023/08/05 10:17:57;;;;;;;3.58;2.38;;;19.10;83.00;;;20.10;53.90;97441.00;4999457;28;20052;-57
2023/08/05 10:20:25;;;;;;;3.97;2.90;;;19.10;82.20;;;20.23;54.31;97435.41;5001490;28;20041;-57
2023/08/05 10:23:10;;;;;;;3.55;2.85;;;19.30;82.80;;;20.19;53.39;97431.53;5004296;28;20417;-58
2023/08/05 10:25:40;;;;;;;5.50;2.55;;;19.20;79.00;;;20.30;53.74;97443.44;5011653;28;20057;-55